Byromville, Georgia
Current Conditions -  °F | °C
As of 11:35 AM on Wednesday 26 Nov 2014 (Local Time) from KACJ Reporting Station
Clear Clear  
Wind Chill: 52°   Ceiling: Unl
Heat Index: 52°   Visibility: 10mi
Dew Point: 32°   Wind: 13mph
Humidity: 47%   Direction: 310°NW
Pressure: 30.16"   Gusts: 18mph
Location:  32.2°N, 83.91°W
Report Text: KACJ 261635Z AUTO 31011G16KT 10SM CLR 11/00 A3016 RMK AO2
Loading
Personal Weather Stations






























Interactive Weather Map New forecast layout! Learn more

10-Day Weather Forecast

Advertisements
Track Severe Weather on mobile